createdAt,value
2023-05-25T00:03:55.439Z,99.90
2023-05-25T00:08:48.872Z,99.90
2023-05-25T00:13:41.134Z,99.90
2023-05-25T00:18:33.301Z,99.90
2023-05-25T00:23:25.423Z,99.90
2023-05-25T00:28:17.694Z,99.90
2023-05-25T00:33:13.202Z,99.90
2023-05-25T00:38:05.487Z,99.90
2023-05-25T00:42:59.636Z,99.90
2023-05-25T00:47:53.244Z,99.90
2023-05-25T00:52:45.531Z,99.90
2023-05-25T00:57:40.209Z,99.90
2023-05-25T01:02:33.948Z,99.90
2023-05-25T01:12:46.667Z,99.90
2023-05-25T01:17:39.129Z,99.90
2023-05-25T01:22:51.957Z,99.90
2023-05-25T01:28:05.657Z,99.90
2023-05-25T01:32:59.253Z,99.90
2023-05-25T01:37:52.490Z,99.90
2023-05-25T01:42:44.649Z,99.90
2023-05-25T01:47:49.032Z,99.90
2023-05-25T01:52:59.135Z,99.90
2023-05-25T01:57:53.682Z,99.90
2023-05-25T02:02:47.793Z,99.90
2023-05-25T02:07:39.917Z,99.90
2023-05-25T02:12:32.358Z,99.90
2023-05-25T02:17:28.129Z,99.90
2023-05-25T02:22:22.000Z,99.90
2023-05-25T02:27:15.397Z,99.90
2023-05-25T02:32:08.028Z,99.90
2023-05-25T02:37:01.672Z,99.90
2023-05-25T02:41:54.240Z,99.90
2023-05-25T02:46:46.529Z,99.90
2023-05-25T02:51:38.793Z,99.90
2023-05-25T02:56:31.399Z,99.90
2023-05-25T03:01:25.655Z,99.90
2023-05-25T03:06:21.616Z,99.90
2023-05-25T03:11:15.919Z,99.90
2023-05-25T03:16:09.257Z,99.90
2023-05-25T03:21:01.393Z,99.90
2023-05-25T03:25:53.783Z,99.90
2023-05-25T03:30:47.236Z,99.90
2023-05-25T03:35:41.718Z,99.90
2023-05-25T03:40:33.994Z,99.90
2023-05-25T03:45:26.232Z,99.90
2023-05-25T03:50:18.584Z,99.90
2023-05-25T03:55:12.136Z,99.90
2023-05-25T04:00:05.368Z,99.90
2023-05-25T04:05:06.086Z,99.90
2023-05-25T04:09:59.741Z,99.90
2023-05-25T04:14:52.336Z,99.90
2023-05-25T04:19:44.766Z,99.90
2023-05-25T04:24:36.908Z,99.90
2023-05-25T04:29:29.356Z,99.90
2023-05-25T04:34:33.980Z,99.90
2023-05-25T04:39:30.927Z,99.90
2023-05-25T04:44:24.369Z,93.30
2023-05-25T04:49:19.051Z,84.80
2023-05-25T04:54:11.407Z,76.20
2023-05-25T04:59:04.472Z,71.50
2023-05-25T05:03:57.294Z,70.00
2023-05-25T05:08:49.811Z,66.70
2023-05-25T05:13:42.468Z,63.20
2023-05-25T05:18:34.689Z,59.90
2023-05-25T05:23:27.353Z,60.20
2023-05-25T05:28:20.125Z,58.20
2023-05-25T05:33:12.551Z,56.90
2023-05-25T05:38:10.960Z,54.80
2023-05-25T05:43:03.200Z,52.50
2023-05-25T05:47:55.297Z,52.20
2023-05-25T05:52:48.168Z,49.60
2023-05-25T05:57:40.269Z,50.50
2023-05-25T06:02:32.677Z,49.00
2023-05-25T06:07:24.916Z,47.70
2023-05-25T06:12:17.103Z,46.70
2023-05-25T06:17:09.406Z,45.70
2023-05-25T06:22:01.497Z,44.00
2023-05-25T06:26:53.678Z,42.60
2023-05-25T06:31:46.079Z,42.10
2023-05-25T06:36:38.304Z,42.70
2023-05-25T06:41:31.013Z,42.00
2023-05-25T06:46:23.500Z,43.10
2023-05-25T06:51:17.172Z,42.20
2023-05-25T06:56:09.325Z,41.70
2023-05-25T07:01:01.789Z,40.90
2023-05-25T07:05:53.990Z,40.40
2023-05-25T07:10:47.493Z,39.70
2023-05-25T07:15:40.774Z,40.50
2023-05-25T07:20:34.529Z,40.90
2023-05-25T07:25:26.739Z,40.60
2023-05-25T07:30:18.911Z,39.90
2023-05-25T07:35:11.305Z,39.90
2023-05-25T07:40:05.180Z,40.30
2023-05-25T07:44:58.029Z,39.20
2023-05-25T07:49:50.266Z,39.20
2023-05-25T07:54:42.844Z,38.40
2023-05-25T07:59:35.737Z,39.40
2023-05-25T08:04:28.436Z,39.40
2023-05-25T08:09:22.088Z,42.70
2023-05-25T08:14:14.306Z,43.90
2023-05-25T08:19:06.555Z,40.70
2023-05-25T08:23:58.659Z,40.10
2023-05-25T08:28:50.841Z,38.20
2023-05-25T08:33:43.109Z,38.70
2023-05-25T08:38:35.221Z,38.80
2023-05-25T08:43:27.328Z,38.60
2023-05-25T08:53:19.196Z,36.00
2023-05-25T08:58:21.277Z,37.10
2023-05-25T09:03:20.117Z,37.00
2023-05-25T09:08:13.723Z,37.60
2023-05-25T09:13:20.321Z,39.20
2023-05-25T09:18:13.883Z,40.10
2023-05-25T09:23:06.256Z,39.40
2023-05-25T09:28:02.928Z,42.70
2023-05-25T09:33:12.840Z,43.30
2023-05-25T09:38:08.840Z,39.40
2023-05-25T09:43:02.731Z,39.50
2023-05-25T09:47:56.648Z,42.30
2023-05-25T09:52:48.988Z,41.10
2023-05-25T09:57:41.275Z,37.50
2023-05-25T10:02:33.687Z,36.80
2023-05-25T10:07:27.281Z,36.40
2023-05-25T10:12:22.381Z,39.10
2023-05-25T10:17:18.200Z,39.30
2023-05-25T10:22:22.486Z,38.80
2023-05-25T10:32:18.835Z,38.20
2023-05-25T10:37:12.772Z,42.10
2023-05-25T10:42:06.623Z,42.70
2023-05-25T10:47:02.951Z,40.30
2023-05-25T10:51:59.775Z,39.10
2023-05-25T10:57:14.280Z,36.70
2023-05-25T11:02:07.672Z,38.60
2023-05-25T11:07:08.354Z,37.90
2023-05-25T11:12:01.961Z,39.70
2023-05-25T11:17:12.924Z,40.80
2023-05-25T11:22:15.075Z,42.00
2023-05-25T11:27:08.970Z,41.00
2023-05-25T11:32:01.338Z,42.30
2023-05-25T11:37:04.044Z,46.10
2023-05-25T11:42:02.027Z,47.90
2023-05-25T11:46:57.556Z,49.60
2023-05-25T11:51:50.144Z,49.90
2023-05-25T11:56:42.413Z,51.60
2023-05-25T12:01:34.563Z,52.80
2023-05-25T12:06:33.554Z,52.30
2023-05-25T12:11:29.955Z,52.10
2023-05-25T12:16:24.560Z,53.10
2023-05-25T12:21:17.378Z,52.50
2023-05-25T12:26:12.018Z,53.30
2023-05-25T12:31:25.303Z,52.70
2023-05-25T12:36:17.435Z,52.00
2023-05-25T12:41:09.751Z,53.20
2023-05-25T12:46:02.011Z,53.90
2023-05-25T12:50:58.404Z,53.80
2023-05-25T12:55:50.651Z,55.50
2023-05-25T13:00:43.487Z,53.70
2023-05-25T13:05:37.795Z,54.50
2023-05-25T13:10:32.616Z,54.00
2023-05-25T13:15:26.649Z,53.90
2023-05-25T13:20:21.087Z,54.50
2023-05-25T13:25:13.843Z,55.80
2023-05-25T13:30:07.342Z,56.00
2023-05-25T13:35:00.210Z,54.60
2023-05-25T13:39:53.686Z,54.80
2023-05-25T13:44:45.656Z,55.20
2023-05-25T13:49:37.901Z,55.30
2023-05-25T13:54:30.106Z,54.90
2023-05-25T13:59:22.212Z,54.90
2023-05-25T14:04:17.353Z,56.30
2023-05-25T14:09:10.764Z,56.40
2023-05-25T14:14:13.829Z,56.20
2023-05-25T14:19:11.869Z,55.80
2023-05-25T14:24:04.112Z,55.00
2023-05-25T14:28:56.265Z,55.70
2023-05-25T14:33:48.431Z,56.00
2023-05-25T14:38:40.756Z,55.30
2023-05-25T14:43:33.287Z,56.40
2023-05-25T14:48:26.143Z,56.80
2023-05-25T14:53:18.641Z,56.60
2023-05-25T14:58:11.358Z,57.50
2023-05-25T15:03:03.630Z,57.20
2023-05-25T15:07:56.335Z,58.20
2023-05-25T15:12:48.658Z,57.40
2023-05-25T15:17:41.229Z,57.30
2023-05-25T15:22:33.459Z,58.00
2023-05-25T15:27:26.256Z,58.40
2023-05-25T15:32:18.396Z,59.20
2023-05-25T15:37:11.303Z,59.20
2023-05-25T15:42:05.225Z,58.50
2023-05-25T15:46:57.510Z,58.70
2023-05-25T15:51:49.632Z,59.20
2023-05-25T15:56:41.816Z,59.10
2023-05-25T16:01:34.624Z,59.40
2023-05-25T16:06:27.006Z,60.00
2023-05-25T16:11:19.418Z,60.50
2023-05-25T16:16:11.502Z,60.60
2023-05-25T16:21:03.873Z,60.80
2023-05-25T16:25:56.133Z,60.90
2023-05-25T16:30:48.280Z,61.20
2023-05-25T16:35:40.428Z,61.80
2023-05-25T16:40:33.625Z,62.00
2023-05-25T16:45:26.846Z,62.40
2023-05-25T16:50:19.028Z,63.10
2023-05-25T16:55:11.226Z,63.20
2023-05-25T17:00:03.330Z,63.90
2023-05-25T17:04:56.102Z,64.50
2023-05-25T17:09:48.314Z,65.00
2023-05-25T17:14:40.384Z,64.60
2023-05-25T17:19:32.474Z,65.50
2023-05-25T17:24:24.743Z,66.00
2023-05-25T17:29:17.050Z,65.90
2023-05-25T17:34:09.131Z,66.50
2023-05-25T17:39:01.359Z,66.80
2023-05-25T17:43:53.455Z,67.10
2023-05-25T17:48:45.841Z,67.60
2023-05-25T17:53:37.919Z,69.10
2023-05-25T17:58:30.092Z,69.00
2023-05-25T18:03:22.387Z,69.60
2023-05-25T18:08:14.493Z,70.30
2023-05-25T18:13:06.956Z,70.90
2023-05-25T18:18:00.762Z,71.90
2023-05-25T18:22:52.976Z,71.80
2023-05-25T18:27:45.112Z,72.30
2023-05-25T18:32:37.138Z,74.00
2023-05-25T18:37:31.236Z,75.30
2023-05-25T18:42:23.573Z,76.00
2023-05-25T18:47:15.807Z,76.30
2023-05-25T18:52:09.537Z,77.70
2023-05-25T18:57:01.686Z,78.90
2023-05-25T19:01:53.691Z,81.10
2023-05-25T19:06:46.777Z,83.40
2023-05-25T19:11:38.792Z,86.70
2023-05-25T19:16:31.151Z,90.80
2023-05-25T19:21:23.449Z,93.50
2023-05-25T19:26:16.282Z,96.00
2023-05-25T19:31:08.338Z,99.80
2023-05-25T19:36:00.353Z,99.90
2023-05-25T19:40:52.616Z,99.90
2023-05-25T19:45:44.909Z,99.90
2023-05-25T19:50:37.256Z,99.90
2023-05-25T19:55:29.402Z,99.90
2023-05-25T20:00:26.771Z,99.90
2023-05-25T20:05:21.076Z,99.90
2023-05-25T20:10:14.421Z,99.90
2023-05-25T20:15:09.381Z,99.90
2023-05-25T20:20:01.744Z,99.90
2023-05-25T20:24:58.616Z,99.90
2023-05-25T20:29:51.080Z,99.90
2023-05-25T20:34:43.299Z,99.90
2023-05-25T20:39:36.305Z,99.90
2023-05-25T20:44:28.874Z,99.90
2023-05-25T20:49:21.026Z,99.90
2023-05-25T20:54:13.439Z,99.90
2023-05-25T20:59:07.052Z,99.90
2023-05-25T21:03:59.373Z,99.90
2023-05-25T21:08:52.975Z,99.90
2023-05-25T21:13:45.774Z,99.90
2023-05-25T21:18:38.046Z,99.90
2023-05-25T21:23:30.742Z,99.90
2023-05-25T21:28:24.247Z,99.90
2023-05-25T21:33:16.608Z,99.90
2023-05-25T21:38:08.979Z,99.90
2023-05-25T21:43:01.371Z,99.90
2023-05-25T21:47:53.650Z,99.90
2023-05-25T21:52:46.149Z,99.90
2023-05-25T21:57:38.309Z,99.90
2023-05-25T22:02:30.558Z,99.90
2023-05-25T22:07:22.795Z,99.90
2023-05-25T22:12:15.138Z,99.90
2023-05-25T22:17:08.513Z,99.90
2023-05-25T22:22:02.149Z,99.90
2023-05-25T22:26:54.368Z,99.90
2023-05-25T22:31:46.474Z,99.90
2023-05-25T22:36:38.546Z,99.90
2023-05-25T22:41:30.555Z,99.90
2023-05-25T22:46:23.378Z,99.90
2023-05-25T22:51:15.586Z,99.90
2023-05-25T22:56:07.802Z,99.90
2023-05-25T23:01:00.060Z,99.90
2023-05-25T23:05:52.292Z,99.90
2023-05-25T23:10:44.444Z,99.90
2023-05-25T23:15:39.973Z,99.90
2023-05-25T23:20:35.106Z,99.90
2023-05-25T23:25:27.188Z,99.90
2023-05-25T23:30:20.620Z,99.90
2023-05-25T23:35:12.627Z,99.90
2023-05-25T23:40:06.450Z,99.90
2023-05-25T23:44:58.567Z,99.90
2023-05-25T23:49:50.667Z,99.90
2023-05-25T23:54:42.737Z,99.90
2023-05-25T23:59:34.828Z,99.90
